createdAt,value
2022-10-08T00:01:24.782Z,16.20
2022-10-08T00:03:53.818Z,16.20
2022-10-08T00:06:24.222Z,16.20
2022-10-08T00:08:57.314Z,16.20
2022-10-08T00:11:30.618Z,16.20
2022-10-08T00:13:58.819Z,16.20
2022-10-08T00:16:39.863Z,16.10
2022-10-08T00:19:13.757Z,16.20
2022-10-08T00:21:43.960Z,16.10
2022-10-08T00:24:14.792Z,16.00
2022-10-08T00:26:44.300Z,15.90
2022-10-08T00:29:15.621Z,15.90
2022-10-08T00:31:45.530Z,16.00
2022-10-08T00:34:16.335Z,15.90
2022-10-08T00:36:43.881Z,15.90
2022-10-08T00:39:17.415Z,15.90
2022-10-08T00:41:47.186Z,15.90
2022-10-08T00:44:54.308Z,15.90
2022-10-08T00:47:36.730Z,15.80
2022-10-08T00:50:19.578Z,15.80
2022-10-08T00:52:58.214Z,15.80
2022-10-08T00:55:29.257Z,15.70
2022-10-08T00:58:01.607Z,15.60
2022-10-08T01:00:29.785Z,15.60
2022-10-08T01:02:57.321Z,15.60
2022-10-08T01:05:49.248Z,15.50
2022-10-08T01:08:33.746Z,15.60
2022-10-08T01:11:11.841Z,15.60
2022-10-08T01:13:53.803Z,15.50
2022-10-08T01:16:55.846Z,15.50
2022-10-08T01:19:55.137Z,15.50
2022-10-08T01:22:47.033Z,15.50
2022-10-08T01:25:46.973Z,15.60
2022-10-08T01:28:22.041Z,15.50
2022-10-08T01:31:01.380Z,15.40
2022-10-08T01:33:44.564Z,15.30
2022-10-08T01:36:14.767Z,15.20
2022-10-08T01:38:47.596Z,15.20
2022-10-08T01:41:17.514Z,15.20
2022-10-08T01:43:56.462Z,15.10
2022-10-08T01:46:28.633Z,15.10
2022-10-08T01:49:02.589Z,15.10
2022-10-08T01:51:36.445Z,15.20
2022-10-08T01:54:07.147Z,15.20
2022-10-08T01:56:37.404Z,15.20
2022-10-08T01:59:13.429Z,15.20
2022-10-08T02:02:03.469Z,15.10
2022-10-08T02:04:36.943Z,15.10
2022-10-08T02:07:31.595Z,15.00
2022-10-08T02:10:22.496Z,15.00
2022-10-08T02:12:50.304Z,15.10
2022-10-08T02:15:42.886Z,15.00
2022-10-08T02:18:27.640Z,15.00
2022-10-08T02:21:06.600Z,15.00
2022-10-08T02:24:17.026Z,15.00
2022-10-08T02:26:54.857Z,15.00
2022-10-08T02:29:49.544Z,15.10
2022-10-08T02:32:31.305Z,15.10
2022-10-08T02:35:07.364Z,15.10
2022-10-08T02:37:48.179Z,15.00
2022-10-08T02:40:17.642Z,15.00
2022-10-08T02:42:52.966Z,14.90
2022-10-08T02:45:30.850Z,14.80
2022-10-08T02:48:05.322Z,14.70
2022-10-08T02:50:35.281Z,14.70
2022-10-08T02:53:03.706Z,14.60
2022-10-08T02:55:49.201Z,14.60
2022-10-08T02:58:18.422Z,14.50
2022-10-08T03:00:54.810Z,14.40
2022-10-08T03:03:37.157Z,14.30
2022-10-08T03:06:08.549Z,14.30
2022-10-08T03:08:42.632Z,14.20
2022-10-08T03:11:12.518Z,14.30
2022-10-08T03:13:44.362Z,14.30
2022-10-08T03:16:15.492Z,14.30
2022-10-08T03:18:44.623Z,14.30
2022-10-08T03:21:14.081Z,14.30
2022-10-08T03:23:41.583Z,14.20
2022-10-08T03:26:08.991Z,14.10
2022-10-08T03:28:36.527Z,14.00
2022-10-08T03:31:05.519Z,14.00
2022-10-08T03:33:33.721Z,14.10
2022-10-08T03:36:01.262Z,14.00
2022-10-08T03:38:28.710Z,14.10
2022-10-08T03:40:57.952Z,14.00
2022-10-08T03:43:31.779Z,14.00
2022-10-08T03:45:59.359Z,14.00
2022-10-08T03:48:27.098Z,14.00
2022-10-08T03:50:59.555Z,14.00
2022-10-08T03:53:27.956Z,14.00
2022-10-08T03:55:55.390Z,14.00
2022-10-08T03:58:22.809Z,13.90
2022-10-08T04:01:05.579Z,13.90
2022-10-08T04:03:33.630Z,13.90
2022-10-08T04:06:01.188Z,14.00
2022-10-08T04:08:28.844Z,14.10
2022-10-08T04:10:56.290Z,14.10
2022-10-08T04:13:23.801Z,14.10
2022-10-08T04:15:51.536Z,14.00
2022-10-08T04:18:19.160Z,14.00
2022-10-08T04:20:46.499Z,13.90
2022-10-08T04:23:13.962Z,13.80
2022-10-08T04:25:52.391Z,13.70
2022-10-08T04:28:20.436Z,13.50
2022-10-08T04:31:02.789Z,13.20
2022-10-08T04:33:32.389Z,13.10
2022-10-08T04:36:00.511Z,13.10
2022-10-08T04:38:28.805Z,13.10
2022-10-08T04:41:10.812Z,13.10
2022-10-08T04:43:39.699Z,13.20
2022-10-08T04:46:09.714Z,13.20
2022-10-08T04:48:38.237Z,13.20
2022-10-08T04:51:10.504Z,13.10
2022-10-08T04:53:38.546Z,13.20
2022-10-08T04:56:30.613Z,13.10
2022-10-08T04:58:59.616Z,13.20
2022-10-08T05:01:28.758Z,13.30
2022-10-08T05:03:57.986Z,13.30
2022-10-08T05:06:28.441Z,13.20
2022-10-08T05:08:56.042Z,13.20
2022-10-08T05:11:25.031Z,13.20
2022-10-08T05:13:54.578Z,13.30
2022-10-08T05:16:22.784Z,13.30
2022-10-08T05:18:52.012Z,13.40
2022-10-08T05:21:23.850Z,13.40
2022-10-08T05:24:03.151Z,13.50
2022-10-08T05:26:56.986Z,13.50
2022-10-08T05:29:24.038Z,13.50
2022-10-08T05:31:51.467Z,13.50
2022-10-08T05:34:18.850Z,13.50
2022-10-08T05:36:46.306Z,13.60
2022-10-08T05:39:13.722Z,13.70
2022-10-08T05:41:41.560Z,13.70
2022-10-08T05:44:10.250Z,13.80
2022-10-08T05:46:39.461Z,13.90
2022-10-08T05:49:18.826Z,13.90
2022-10-08T05:51:46.960Z,13.90
2022-10-08T05:54:14.726Z,13.90
2022-10-08T05:56:42.547Z,13.90
2022-10-08T05:59:21.978Z,14.00
2022-10-08T06:01:50.497Z,14.70
2022-10-08T06:04:18.676Z,15.40
2022-10-08T06:06:46.724Z,16.10
2022-10-08T06:09:18.266Z,16.90
2022-10-08T06:11:46.658Z,17.60
2022-10-08T06:14:16.906Z,18.00
2022-10-08T06:16:44.303Z,18.40
2022-10-08T06:19:11.815Z,18.60
2022-10-08T06:21:39.202Z,18.80
2022-10-08T06:24:10.526Z,19.30
2022-10-08T06:26:40.446Z,19.80
2022-10-08T06:29:16.795Z,20.30
2022-10-08T06:31:45.899Z,20.10
2022-10-08T06:34:13.467Z,20.40
2022-10-08T06:36:41.518Z,21.10
2022-10-08T06:39:12.411Z,21.70
2022-10-08T06:41:40.063Z,22.30
2022-10-08T06:44:10.456Z,22.90
2022-10-08T06:46:37.985Z,23.30
2022-10-08T06:49:06.209Z,23.70
2022-10-08T06:51:34.258Z,24.20
2022-10-08T06:54:07.477Z,24.70
2022-10-08T06:56:37.483Z,25.00
2022-10-08T06:59:06.221Z,25.30
2022-10-08T07:01:35.154Z,25.50
2022-10-08T07:04:04.726Z,25.80
2022-10-08T07:06:32.361Z,26.20
2022-10-08T07:09:01.411Z,26.00
2022-10-08T07:11:30.319Z,25.90
2022-10-08T07:13:58.576Z,26.00
2022-10-08T07:16:27.226Z,25.50
2022-10-08T07:18:58.404Z,25.30
2022-10-08T07:21:27.214Z,25.60
2022-10-08T07:23:54.917Z,25.60
2022-10-08T07:26:24.798Z,25.70
2022-10-08T07:28:59.011Z,25.20
2022-10-08T07:31:31.753Z,25.50
2022-10-08T07:34:00.743Z,25.90
2022-10-08T07:36:29.504Z,25.70
2022-10-08T07:39:01.647Z,25.80
2022-10-08T07:41:30.018Z,26.00
2022-10-08T07:43:59.921Z,26.30
2022-10-08T07:46:28.996Z,26.70
2022-10-08T07:48:59.224Z,27.30
2022-10-08T07:51:28.128Z,27.70
2022-10-08T07:54:00.275Z,28.00
2022-10-08T07:56:30.532Z,28.10
2022-10-08T07:58:59.524Z,28.40
2022-10-08T08:01:31.086Z,28.40
2022-10-08T08:04:04.071Z,28.10
2022-10-08T08:06:33.395Z,28.30
2022-10-08T08:09:01.907Z,28.50
2022-10-08T08:11:29.796Z,28.60
2022-10-08T08:13:57.344Z,28.80
2022-10-08T08:16:27.285Z,29.70
2022-10-08T08:18:57.046Z,30.10
2022-10-08T08:21:30.536Z,29.60
2022-10-08T08:24:02.594Z,29.60
2022-10-08T08:26:32.853Z,29.40
2022-10-08T08:29:05.373Z,29.60
2022-10-08T08:31:38.737Z,29.70
2022-10-08T08:34:09.290Z,29.80
2022-10-08T08:36:39.707Z,29.90
2022-10-08T08:39:17.348Z,29.80
2022-10-08T08:42:06.809Z,30.10
2022-10-08T08:44:44.286Z,30.30
2022-10-08T08:47:30.682Z,30.80
2022-10-08T08:50:03.049Z,30.50
2022-10-08T08:52:37.870Z,30.20
2022-10-08T08:55:17.040Z,30.50
2022-10-08T08:58:00.777Z,30.70
2022-10-08T09:00:41.691Z,30.10
2022-10-08T09:03:26.509Z,30.10
2022-10-08T09:05:58.191Z,30.40
2022-10-08T09:08:31.546Z,30.70
2022-10-08T09:11:04.542Z,30.50
2022-10-08T09:13:45.839Z,30.40
2022-10-08T09:16:13.897Z,29.60
2022-10-08T09:18:45.378Z,29.60
2022-10-08T09:21:12.884Z,29.80
2022-10-08T09:23:40.254Z,30.10
2022-10-08T09:26:20.926Z,30.60
2022-10-08T09:28:56.881Z,30.90
2022-10-08T09:31:27.490Z,31.10
2022-10-08T09:34:20.612Z,30.00
2022-10-08T09:37:23.687Z,29.40
2022-10-08T09:40:13.701Z,29.60
2022-10-08T09:42:41.114Z,30.00
2022-10-08T09:45:31.637Z,30.20
2022-10-08T09:48:18.708Z,30.60
2022-10-08T09:51:05.251Z,30.90
2022-10-08T09:53:45.395Z,30.40
2022-10-08T09:56:13.998Z,30.30
2022-10-08T09:59:00.762Z,30.40
2022-10-08T10:01:31.413Z,30.10
2022-10-08T10:04:02.190Z,30.10
2022-10-08T10:06:43.497Z,29.10
2022-10-08T10:09:34.837Z,28.00
2022-10-08T10:12:24.459Z,27.40
2022-10-08T10:14:59.413Z,27.00
2022-10-08T10:17:43.510Z,26.90
2022-10-08T10:20:18.782Z,26.90
2022-10-08T10:23:01.195Z,26.70
2022-10-08T10:25:34.679Z,26.30
2022-10-08T10:28:08.604Z,26.00
2022-10-08T10:30:51.706Z,25.90
2022-10-08T10:33:30.346Z,25.60
2022-10-08T10:36:00.831Z,25.40
2022-10-08T10:38:39.540Z,25.20
2022-10-08T10:41:43.369Z,25.10
2022-10-08T10:44:18.950Z,24.80
2022-10-08T10:46:49.738Z,24.70
2022-10-08T10:49:21.332Z,24.70
2022-10-08T10:52:09.194Z,24.60
2022-10-08T10:54:39.541Z,24.40
2022-10-08T10:57:20.786Z,24.30
2022-10-08T11:00:11.743Z,24.20
2022-10-08T11:02:39.169Z,24.20
2022-10-08T11:05:29.193Z,24.30
2022-10-08T11:08:11.015Z,24.40
2022-10-08T11:11:02.911Z,24.50
2022-10-08T11:13:33.100Z,24.60
2022-10-08T11:16:37.534Z,24.70
2022-10-08T11:19:09.278Z,24.80
2022-10-08T11:22:00.842Z,24.70
2022-10-08T11:24:30.989Z,24.70
2022-10-08T11:27:32.436Z,24.80
2022-10-08T11:30:14.568Z,24.90
2022-10-08T11:32:45.940Z,24.90
2022-10-08T11:35:16.423Z,24.90
2022-10-08T11:37:50.577Z,24.90
2022-10-08T11:40:21.071Z,24.70
2022-10-08T11:43:02.117Z,24.70
2022-10-08T11:45:30.328Z,24.90
2022-10-08T11:48:00.257Z,24.90
2022-10-08T11:50:29.147Z,25.00
2022-10-08T11:53:10.091Z,25.00
2022-10-08T11:55:39.475Z,24.90
2022-10-08T11:58:21.424Z,24.90
2022-10-08T12:00:50.576Z,24.80
2022-10-08T12:03:30.242Z,24.60
2022-10-08T12:06:13.367Z,24.60
2022-10-08T12:08:53.278Z,24.60
2022-10-08T12:11:29.998Z,24.50
2022-10-08T12:14:12.516Z,24.50
2022-10-08T12:16:49.056Z,24.50
2022-10-08T12:19:35.296Z,24.60
2022-10-08T12:22:04.029Z,24.70
2022-10-08T12:24:37.710Z,24.60
2022-10-08T12:27:17.539Z,24.60
2022-10-08T12:29:55.201Z,24.80
2022-10-08T12:32:41.446Z,24.90
2022-10-08T12:35:41.538Z,25.10
2022-10-08T12:38:51.257Z,25.00
2022-10-08T12:41:26.758Z,25.20
2022-10-08T12:44:02.757Z,25.20
2022-10-08T12:47:01.176Z,25.20
2022-10-08T12:49:45.181Z,25.30
2022-10-08T12:52:14.671Z,25.30
2022-10-08T12:54:54.095Z,25.40
2022-10-08T12:57:27.520Z,25.30
2022-10-08T12:59:54.918Z,25.30
2022-10-08T13:02:39.200Z,25.20
2022-10-08T13:05:33.700Z,25.00
2022-10-08T13:08:27.275Z,25.10
2022-10-08T13:10:55.577Z,24.90
2022-10-08T13:13:38.183Z,24.90
2022-10-08T13:16:15.388Z,25.00
2022-10-08T13:18:58.588Z,25.10
2022-10-08T13:21:32.053Z,24.90
2022-10-08T13:24:01.155Z,24.80
2022-10-08T13:26:50.158Z,24.80
2022-10-08T13:29:32.547Z,24.90
2022-10-08T13:32:15.065Z,24.80
2022-10-08T13:34:45.574Z,24.90
2022-10-08T13:37:23.499Z,24.90
2022-10-08T13:39:58.689Z,24.90
2022-10-08T13:42:32.808Z,24.80
2022-10-08T13:45:01.894Z,24.70
2022-10-08T13:47:29.472Z,24.70
2022-10-08T13:50:01.887Z,24.70
2022-10-08T13:52:32.105Z,24.80
2022-10-08T13:55:08.162Z,24.80
2022-10-08T13:57:35.546Z,24.90
2022-10-08T14:00:04.501Z,24.80
2022-10-08T14:02:32.324Z,24.80
2022-10-08T14:04:59.680Z,24.90
2022-10-08T14:07:31.170Z,25.00
2022-10-08T14:10:00.782Z,25.10
2022-10-08T14:12:32.607Z,25.10
2022-10-08T14:15:00.781Z,25.10
2022-10-08T14:17:28.139Z,25.00
2022-10-08T14:19:55.640Z,25.00
2022-10-08T14:22:23.513Z,24.90
2022-10-08T14:24:51.541Z,24.90
2022-10-08T14:27:18.974Z,24.90
2022-10-08T14:29:46.461Z,24.90
2022-10-08T14:32:13.825Z,24.90
2022-10-08T14:34:41.247Z,24.90
2022-10-08T14:37:10.420Z,24.70
2022-10-08T14:39:37.801Z,24.70
2022-10-08T14:42:05.363Z,24.70
2022-10-08T14:44:32.734Z,24.70
2022-10-08T14:47:00.146Z,24.70
2022-10-08T14:49:28.106Z,24.70
2022-10-08T14:51:55.494Z,24.70
2022-10-08T14:54:22.888Z,24.70
2022-10-08T14:56:50.325Z,24.70
2022-10-08T14:59:18.489Z,24.70
2022-10-08T15:01:46.178Z,24.70
2022-10-08T15:04:16.927Z,24.60
2022-10-08T15:06:44.515Z,24.50
2022-10-08T15:09:12.723Z,24.50
2022-10-08T15:11:40.146Z,24.40
2022-10-08T15:14:07.709Z,24.30
2022-10-08T15:16:35.577Z,24.30
2022-10-08T15:19:06.399Z,24.10
2022-10-08T15:21:33.764Z,24.10
2022-10-08T15:24:01.217Z,24.10
2022-10-08T15:26:28.783Z,24.10
2022-10-08T15:28:56.180Z,24.10
2022-10-08T15:31:25.440Z,24.10
2022-10-08T15:33:54.369Z,24.00
2022-10-08T15:36:26.385Z,23.80
2022-10-08T15:38:59.456Z,23.70
2022-10-08T15:41:28.463Z,23.60
2022-10-08T15:43:56.197Z,23.50
2022-10-08T15:46:26.170Z,23.40
2022-10-08T15:48:57.069Z,23.30
2022-10-08T15:51:24.865Z,23.20
2022-10-08T15:53:52.308Z,23.20
2022-10-08T15:56:19.763Z,23.10
2022-10-08T15:58:51.443Z,23.10
2022-10-08T16:01:23.531Z,23.00
2022-10-08T16:03:53.096Z,23.00
2022-10-08T16:06:29.652Z,22.90
2022-10-08T16:08:58.204Z,22.80
2022-10-08T16:11:34.875Z,22.80
2022-10-08T16:14:08.532Z,22.70
2022-10-08T16:16:37.277Z,22.60
2022-10-08T16:19:09.357Z,22.60
2022-10-08T16:21:37.583Z,22.50
2022-10-08T16:24:05.672Z,22.40
2022-10-08T16:26:34.562Z,22.30
2022-10-08T16:29:05.816Z,22.20
2022-10-08T16:31:35.685Z,22.10
2022-10-08T16:34:06.192Z,22.10
2022-10-08T16:36:35.822Z,22.00
2022-10-08T16:39:05.074Z,21.90
2022-10-08T16:41:33.802Z,21.80
2022-10-08T16:44:12.395Z,21.80
2022-10-08T16:46:42.429Z,21.80
2022-10-08T16:49:17.370Z,21.80
2022-10-08T16:51:49.457Z,21.70
2022-10-08T16:54:17.697Z,21.60
2022-10-08T16:56:45.909Z,21.70
2022-10-08T16:59:17.353Z,21.70
2022-10-08T17:01:48.821Z,21.70
2022-10-08T17:04:17.059Z,21.70
2022-10-08T17:06:45.264Z,21.60
2022-10-08T17:09:13.130Z,21.50
2022-10-08T17:11:41.913Z,21.60
2022-10-08T17:14:10.389Z,21.50
2022-10-08T17:16:38.807Z,21.40
2022-10-08T17:19:06.579Z,21.40
2022-10-08T17:21:35.153Z,21.30
2022-10-08T17:24:03.084Z,21.30
2022-10-08T17:26:31.483Z,21.20
2022-10-08T17:29:06.715Z,21.20
2022-10-08T17:31:35.127Z,21.10
2022-10-08T17:34:04.258Z,21.10
2022-10-08T17:36:34.770Z,21.10
2022-10-08T17:39:04.597Z,21.00
2022-10-08T17:41:36.878Z,21.00
2022-10-08T17:44:05.557Z,21.00
2022-10-08T17:46:45.927Z,21.00
2022-10-08T17:49:19.469Z,20.90
2022-10-08T17:51:47.699Z,20.80
2022-10-08T17:54:19.103Z,20.70
2022-10-08T17:56:47.402Z,20.60
2022-10-08T17:59:19.000Z,20.60
2022-10-08T18:01:46.514Z,20.50
2022-10-08T18:04:16.308Z,20.50
2022-10-08T18:06:48.693Z,20.40
2022-10-08T18:09:20.502Z,20.40
2022-10-08T18:11:51.919Z,20.30
2022-10-08T18:14:21.659Z,20.30
2022-10-08T18:16:49.377Z,20.40
2022-10-08T18:19:17.625Z,20.40
2022-10-08T18:21:45.164Z,20.40
2022-10-08T18:24:12.619Z,20.40
2022-10-08T18:26:40.079Z,20.30
2022-10-08T18:29:11.625Z,20.30
2022-10-08T18:31:41.232Z,20.20
2022-10-08T18:34:14.004Z,20.20
2022-10-08T18:36:41.769Z,20.10
2022-10-08T18:39:14.917Z,20.20
2022-10-08T18:41:45.230Z,20.10
2022-10-08T18:44:16.206Z,20.10
2022-10-08T18:46:45.474Z,20.10
2022-10-08T18:49:23.847Z,20.00
2022-10-08T18:51:51.342Z,20.00
2022-10-08T18:54:18.801Z,20.00
2022-10-08T18:56:46.204Z,19.90
2022-10-08T18:59:15.324Z,19.90
2022-10-08T19:01:45.632Z,20.00
2022-10-08T19:04:19.059Z,19.90
2022-10-08T19:06:48.742Z,19.90
2022-10-08T19:09:16.722Z,20.00
2022-10-08T19:11:47.253Z,19.90
2022-10-08T19:14:17.371Z,19.90
2022-10-08T19:16:45.206Z,19.80
2022-10-08T19:19:18.446Z,19.80
2022-10-08T19:21:46.669Z,19.80
2022-10-08T19:24:17.522Z,19.80
2022-10-08T19:26:45.928Z,19.70
2022-10-08T19:29:21.347Z,19.70
2022-10-08T19:31:50.092Z,19.70
2022-10-08T19:34:21.457Z,19.70
2022-10-08T19:36:49.746Z,19.70
2022-10-08T19:39:19.702Z,19.70
2022-10-08T19:41:47.167Z,19.80
2022-10-08T19:44:16.490Z,19.80
2022-10-08T19:46:44.461Z,19.80
2022-10-08T19:49:12.371Z,19.80
2022-10-08T19:51:40.688Z,19.80
2022-10-08T19:54:08.416Z,19.80
2022-10-08T19:56:36.485Z,19.80
2022-10-08T19:59:04.323Z,19.90
2022-10-08T20:01:38.136Z,19.80
2022-10-08T20:04:07.580Z,19.70
2022-10-08T20:06:38.738Z,19.70
2022-10-08T20:09:08.052Z,19.80
2022-10-08T20:11:37.035Z,19.80
2022-10-08T20:14:05.141Z,19.80
2022-10-08T20:16:36.529Z,19.80
2022-10-08T20:19:06.773Z,19.80
2022-10-08T20:21:37.216Z,19.90
2022-10-08T20:24:06.221Z,19.90
2022-10-08T20:26:36.254Z,19.90
2022-10-08T20:29:28.693Z,19.90
2022-10-08T20:31:59.725Z,19.90
2022-10-08T20:34:31.035Z,19.80
2022-10-08T20:37:01.452Z,19.90
2022-10-08T20:39:30.262Z,19.90
2022-10-08T20:41:58.455Z,19.90
2022-10-08T20:44:25.938Z,19.90
2022-10-08T20:46:53.487Z,19.80
2022-10-08T20:49:20.964Z,19.80
2022-10-08T20:51:48.495Z,19.80
2022-10-08T20:54:17.242Z,19.80
2022-10-08T20:56:45.746Z,19.80
2022-10-08T20:59:17.972Z,19.80
2022-10-08T21:01:46.522Z,19.80
2022-10-08T21:04:14.243Z,19.80
2022-10-08T21:06:49.485Z,19.80
2022-10-08T21:09:19.077Z,19.70
2022-10-08T21:11:46.983Z,19.70
2022-10-08T21:14:19.638Z,19.70
2022-10-08T21:16:47.130Z,19.70
2022-10-08T21:19:18.956Z,19.70
2022-10-08T21:21:46.541Z,19.70
2022-10-08T21:24:14.265Z,19.60
2022-10-08T21:26:42.441Z,19.60
2022-10-08T21:29:12.258Z,19.60
2022-10-08T21:31:41.292Z,19.70
2022-10-08T21:34:10.499Z,19.60
2022-10-08T21:36:39.788Z,19.60
2022-10-08T21:39:09.072Z,19.60
2022-10-08T21:41:38.684Z,19.60
2022-10-08T21:44:08.273Z,19.60
2022-10-08T21:46:38.210Z,19.50
2022-10-08T21:49:13.054Z,19.50
2022-10-08T21:51:40.704Z,19.50
2022-10-08T21:54:08.904Z,19.50
2022-10-08T21:56:38.197Z,19.40
2022-10-08T21:59:07.912Z,19.40
2022-10-08T22:01:45.905Z,19.40
2022-10-08T22:04:19.399Z,19.30
2022-10-08T22:06:49.507Z,19.30
2022-10-08T22:09:23.675Z,19.30
2022-10-08T22:11:51.825Z,19.30
2022-10-08T22:14:19.595Z,19.30
2022-10-08T22:16:47.398Z,19.20
2022-10-08T22:19:15.482Z,19.30
2022-10-08T22:21:43.444Z,19.20
2022-10-08T22:24:11.390Z,19.20
2022-10-08T22:26:42.180Z,19.10
2022-10-08T22:29:09.982Z,19.20
2022-10-08T22:31:39.048Z,19.20
2022-10-08T22:34:08.036Z,19.20
2022-10-08T22:36:39.976Z,19.20
2022-10-08T22:39:07.753Z,19.20
2022-10-08T22:41:36.018Z,19.20
2022-10-08T22:44:03.845Z,19.10
2022-10-08T22:46:36.011Z,19.10
2022-10-08T22:49:07.215Z,19.00
2022-10-08T22:51:35.596Z,19.00
2022-10-08T22:54:03.319Z,18.90
2022-10-08T22:56:32.075Z,18.90
2022-10-08T22:59:00.115Z,18.80
2022-10-08T23:01:29.051Z,18.80
2022-10-08T23:03:56.824Z,18.80
2022-10-08T23:06:25.694Z,18.70
2022-10-08T23:09:00.696Z,18.70
2022-10-08T23:11:30.112Z,18.60
2022-10-08T23:13:59.028Z,18.60
2022-10-08T23:16:28.273Z,18.50
2022-10-08T23:18:58.116Z,18.50
2022-10-08T23:21:26.000Z,18.40
2022-10-08T23:23:54.078Z,18.40
2022-10-08T23:26:25.527Z,18.40
2022-10-08T23:28:55.554Z,18.40
2022-10-08T23:31:28.292Z,18.50
2022-10-08T23:33:56.983Z,18.50
2022-10-08T23:36:27.347Z,18.50
2022-10-08T23:38:56.498Z,18.60
2022-10-08T23:41:25.461Z,18.50
2022-10-08T23:43:55.368Z,18.50
2022-10-08T23:46:26.608Z,18.50
2022-10-08T23:48:54.867Z,18.50
2022-10-08T23:51:24.544Z,18.40
2022-10-08T23:53:52.640Z,18.40
2022-10-08T23:56:21.179Z,18.30
2022-10-08T23:58:48.864Z,18.30
